Time;durP1;ratioP1;P1;durP2;ratioP2;P2;SDS_P1;SDS_P2;PMS_P1;PMS_P2;Temp;Humidity;BMP_temperature;BMP_pressure;BME280_temperature;BME280_humidity;BME280_pressure;Samples;Min_cycle;Max_cycle;Signal;HPM_P1;HPM_P2
2021/07/20 00:01:00;;;;;;;3.53;2.72;;;21.80;62.50;;;;;;21000371;28;20095;-77
2021/07/20 00:11:05;;;;;;;4.03;2.85;;;21.80;62.50;;;;;;20966224;28;20052;-77
2021/07/20 00:21:06;;;;;;;4.13;2.30;;;21.80;62.50;;;;;;20982484;28;20155;-76
2021/07/20 00:31:07;;;;;;;5.15;2.38;;;21.80;62.70;;;;;;20981235;28;20471;-76
2021/07/20 00:41:09;;;;;;;4.30;2.85;;;21.80;62.60;;;;;;20981195;28;20039;-76
2021/07/20 00:51:12;;;;;;;4.63;2.25;;;21.80;62.70;;;;;;20981522;28;20415;-77
2021/07/20 01:01:12;;;;;;;3.80;2.60;;;21.80;62.80;;;;;;20995902;28;20041;-77
2021/07/20 01:11:19;;;;;;;2.63;1.85;;;21.80;62.90;;;;;;20979439;28;20120;-76
2021/07/20 01:21:22;;;;;;;4.75;3.38;;;21.70;62.90;;;;;;20977627;28;20119;-77
2021/07/20 01:31:26;;;;;;;6.13;2.40;;;21.80;63.00;;;;;;20975928;28;20044;-75
2021/07/20 01:41:37;;;;;;;3.58;2.60;;;21.80;63.00;;;;;;20977269;28;20044;-76
2021/07/20 01:51:44;;;;;;;3.72;2.30;;;21.70;62.90;;;;;;20975776;28;20063;-77
2021/07/20 02:01:58;;;;;;;4.70;2.35;;;21.70;63.00;;;;;;20975069;28;20028;-76
2021/07/20 02:12:15;;;;;;;3.83;2.28;;;21.70;63.00;;;;;;20989176;28;20052;-76
2021/07/20 02:22:42;;;;;;;3.83;2.33;;;21.70;63.10;;;;;;20964005;28;20077;-76
2021/07/20 02:32:45;;;;;;;3.45;2.20;;;21.70;63.10;;;;;;20972302;28;20052;-77
2021/07/20 02:42:57;;;;;;;3.53;2.33;;;21.70;63.10;;;;;;20972290;28;20037;-77
2021/07/20 02:52:58;;;;;;;3.72;2.50;;;21.70;63.20;;;;;;20971358;28;20048;-76
2021/07/20 03:03:06;;;;;;;3.58;2.25;;;21.60;63.20;;;;;;20971456;28;20097;-77
2021/07/20 03:13:15;;;;;;;2.83;2.03;;;21.60;63.20;;;;;;20971381;28;20110;-76
2021/07/20 03:23:23;;;;;;;3.20;1.98;;;21.60;63.30;;;;;;20955964;28;20037;-74
2021/07/20 03:33:26;;;;;;;4.03;2.35;;;21.60;63.30;;;;;;20970505;28;20082;-80
2021/07/20 03:43:32;;;;;;;3.47;2.20;;;21.60;63.40;;;;;;20986255;28;20049;-79
2021/07/20 03:53:36;;;;;;;4.97;2.25;;;21.60;63.40;;;;;;20978082;28;20036;-79
2021/07/20 04:03:37;;;;;;;3.15;1.98;;;21.60;63.40;;;;;;20985652;28;20425;-78
2021/07/20 04:13:57;;;;;;;4.00;2.45;;;21.60;63.50;;;;;;20996809;28;20076;-78
2021/07/20 04:24:25;;;;;;;2.97;1.58;;;21.50;63.50;;;;;;20977242;28;20079;-78
2021/07/20 04:34:27;;;;;;;3.58;2.15;;;21.50;63.50;;;;;;20997982;28;20037;-78
2021/07/20 04:44:57;;;;;;;5.38;2.75;;;21.50;63.50;;;;;;20995697;28;20075;-78
2021/07/20 04:55:27;;;;;;;2.58;1.90;;;21.50;63.50;;;;;;21038747;28;20577;-76
2021/07/20 05:05:39;;;;;;;3.50;2.00;;;21.50;63.60;;;;;;21058796;28;20504;-74
2021/07/20 05:15:49;;;;;;;2.63;1.88;;;21.50;63.60;;;;;;21045780;28;20036;-80
2021/07/20 05:25:55;;;;;;;3.78;2.28;;;21.50;63.70;;;;;;21045857;28;20135;-78
2021/07/20 05:35:57;;;;;;;2.43;1.73;;;21.40;63.70;;;;;;21079295;28;20040;-83
2021/07/20 05:46:00;;;;;;;4.10;2.00;;;21.40;63.70;;;;;;21059431;28;20040;-79
2021/07/20 05:56:02;;;;;;;3.53;2.35;;;21.50;63.70;;;;;;21058911;28;20062;-79
2021/07/20 06:06:05;;;;;;;3.75;2.28;;;21.50;63.70;;;;;;21040759;28;20040;-79
2021/07/20 06:16:09;;;;;;;5.15;1.80;;;21.40;63.70;;;;;;21073554;28;20077;-77
2021/07/20 06:26:10;;;;;;;3.45;1.90;;;21.40;63.70;;;;;;21055815;28;20048;-79
2021/07/20 06:36:18;;;;;;;3.20;1.95;;;21.40;63.70;;;;;;21051838;28;20042;-79
2021/07/20 06:46:22;;;;;;;5.28;2.22;;;21.40;63.70;;;;;;21054255;28;20040;-79
2021/07/20 06:56:34;;;;;;;5.43;1.98;;;21.40;63.70;;;;;;21053895;28;20394;-77
2021/07/20 07:06:39;;;;;;;6.75;2.83;;;21.40;63.70;;;;;;21038315;28;20080;-79
2021/07/20 07:16:41;;;;;;;3.53;1.95;;;21.40;63.70;;;;;;21052892;28;20073;-79
2021/07/20 07:26:42;;;;;;;3.53;1.95;;;21.40;63.70;;;;;;21074328;28;20078;-79
2021/07/20 07:36:44;;;;;;;2.58;1.70;;;21.50;64.50;;;;;;21085417;28;20115;-79
2021/07/20 07:46:45;;;;;;;3.00;1.67;;;21.40;63.70;;;;;;21068102;28;20051;-79
2021/07/20 07:56:46;;;;;;;3.13;2.05;;;21.40;63.70;;;;;;21067039;28;20036;-78
2021/07/20 08:06:48;;;;;;;2.28;1.83;;;21.40;63.70;;;;;;21080286;28;20093;-79
2021/07/20 08:16:54;;;;;;;3.92;1.70;;;21.40;63.70;;;;;;21059595;28;20032;-78
2021/07/20 08:27:11;;;;;;;3.10;1.90;;;21.40;63.60;;;;;;21063691;28;20040;-78
2021/07/20 08:37:15;;;;;;;3.78;1.75;;;21.40;63.50;;;;;;21061623;28;20449;-76
2021/07/20 08:47:30;;;;;;;3.55;1.92;;;21.40;63.40;;;;;;21079691;28;20428;-75
2021/07/20 08:57:43;;;;;;;2.40;1.67;;;21.40;63.40;;;;;;21062829;28;20051;-75
2021/07/20 09:07:52;;;;;;;2.30;1.77;;;21.40;63.30;;;;;;21060878;28;20060;-76
2021/07/20 09:18:18;;;;;;;2.47;1.55;;;21.40;63.20;;;;;;21051272;28;20556;-77
2021/07/20 09:28:24;;;;;;;;;;;21.40;63.20;;;;;;21076217;28;20063;-76
2021/07/20 09:38:56;;;;;;;2.30;1.50;;;21.40;63.20;;;;;;21488863;22;20297;-82
2021/07/20 09:49:00;;;;;;;3.72;2.38;;;21.40;63.10;;;;;;20993776;28;20111;-83
2021/07/20 09:59:22;;;;;;;2.60;1.80;;;21.40;63.00;;;;;;20976659;28;20473;-82
2021/07/20 10:10:00;;;;;;;2.17;1.70;;;21.40;62.80;;;;;;20954455;28;20513;-84
2021/07/20 10:20:17;;;;;;;2.15;1.63;;;21.40;62.70;;;;;;20938787;28;20032;-84
2021/07/20 10:30:18;;;;;;;3.70;1.70;;;21.40;62.50;;;;;;20957092;28;20504;-83
2021/07/20 10:40:19;;;;;;;4.00;1.35;;;21.50;62.40;;;;;;20955442;28;20064;-77
2021/07/20 10:50:32;;;;;;;2.58;1.83;;;21.40;62.20;;;;;;20971078;28;20170;-80
2021/07/20 11:00:46;;;;;;;3.72;1.55;;;21.50;62.10;;;;;;20953938;28;20067;-76
2021/07/20 11:10:54;;;;;;;3.67;1.58;;;21.50;62.00;;;;;;20937102;28;20039;-75
2021/07/20 11:20:59;;;;;;;3.38;1.70;;;21.40;61.90;;;;;;20953035;28;20036;-75
2021/07/20 11:31:02;;;;;;;3.97;1.50;;;21.40;61.80;;;;;;20936027;28;20036;-76
2021/07/20 11:41:06;;;;;;;2.70;1.40;;;21.50;61.60;;;;;;20950722;28;20621;-77
2021/07/20 11:51:10;;;;;;;4.50;1.73;;;21.40;61.40;;;;;;20966646;28;20090;-76
2021/07/20 12:01:49;;;;;;;4.33;1.40;;;21.40;61.30;;;;;;20947147;28;20551;-76
2021/07/20 12:11:50;;;;;;;3.13;1.63;;;21.50;61.00;;;;;;20969008;28;20029;-76
2021/07/20 12:21:51;;;;;;;4.18;1.58;;;21.40;60.80;;;;;;20978172;28;20036;-76
2021/07/20 12:31:51;;;;;;;3.35;1.70;;;21.50;60.70;;;;;;20963730;28;20040;-75
2021/07/20 12:41:53;;;;;;;3.30;1.50;;;21.50;60.60;;;;;;20980528;28;20115;-75
2021/07/20 12:51:54;;;;;;;3.75;2.15;;;21.40;60.30;;;;;;20963496;28;20136;-73
2021/07/20 13:01:56;;;;;;;3.55;1.95;;;21.50;60.40;;;;;;20963385;28;20072;-73
2021/07/20 13:11:57;;;;;;;3.60;1.85;;;21.50;60.40;;;;;;20927835;28;20563;-74
2021/07/20 13:21:58;;;;;;;2.47;1.65;;;21.50;60.40;;;;;;20959914;28;20025;-73
2021/07/20 13:32:08;;;;;;;2.03;1.23;;;21.50;60.40;;;;;;20959641;28;20082;-73
2021/07/20 13:42:09;;;;;;;2.72;1.55;;;21.50;60.40;;;;;;20975739;28;20028;-78
2021/07/20 13:52:10;;;;;;;2.47;1.70;;;21.50;60.50;;;;;;20957971;28;20040;-79
2021/07/20 14:02:13;;;;;;;2.60;1.95;;;21.60;60.60;;;;;;20956465;28;20496;-79
2021/07/20 14:12:14;;;;;;;2.25;1.50;;;21.60;60.60;;;;;;20955595;28;20037;-78
2021/07/20 14:22:19;;;;;;;3.50;1.40;;;21.60;60.60;;;;;;20955036;28;20036;-78
2021/07/20 14:32:23;;;;;;;2.70;1.73;;;21.60;60.50;;;;;;20953935;28;20505;-76
2021/07/20 14:42:24;;;;;;;2.47;1.58;;;21.50;60.50;;;;;;20970671;28;20478;-76
2021/07/20 14:52:36;;;;;;;2.47;1.38;;;21.60;60.80;;;;;;20953502;28;20474;-77
2021/07/20 15:02:37;;;;;;;4.22;1.90;;;21.60;60.80;;;;;;20953215;28;20082;-74
2021/07/20 15:12:38;;;;;;;3.22;1.77;;;21.60;60.80;;;;;;20952411;28;20397;-73
2021/07/20 15:22:38;;;;;;;3.15;1.65;;;21.60;61.00;;;;;;20941032;28;20036;-72
2021/07/20 15:32:39;;;;;;;2.75;2.05;;;21.60;61.00;;;;;;20948312;28;20044;-72
2021/07/20 15:42:42;;;;;;;3.20;2.00;;;21.60;61.20;;;;;;20967653;28;20044;-70
2021/07/20 15:52:43;;;;;;;2.67;1.63;;;21.60;61.20;;;;;;20979945;28;20815;-70
2021/07/20 16:02:44;;;;;;;3.30;2.15;;;21.60;61.30;;;;;;20949305;28;20044;-71
2021/07/20 16:12:46;;;;;;;2.15;1.52;;;21.60;61.40;;;;;;20945634;28;20032;-72
2021/07/20 16:22:47;;;;;;;3.58;2.15;;;21.60;61.40;;;;;;20979668;28;20055;-70
2021/07/20 16:32:47;;;;;;;3.15;1.83;;;21.60;61.40;;;;;;20964169;28;20131;-71
2021/07/20 16:42:53;;;;;;;4.53;2.28;;;21.70;61.30;;;;;;20963795;28;20047;-72
2021/07/20 16:52:54;;;;;;;3.22;2.20;;;21.70;61.30;;;;;;20946324;28;20037;-72
2021/07/20 17:02:59;;;;;;;3.00;2.10;;;21.70;61.30;;;;;;20960871;28;20031;-71
2021/07/20 17:13:00;;;;;;;3.60;2.30;;;21.70;61.50;;;;;;20962656;28;20398;-71
2021/07/20 17:23:01;;;;;;;3.42;2.30;;;21.70;61.80;;;;;;20960422;28;20036;-73
2021/07/20 17:33:18;;;;;;;4.03;2.15;;;21.70;61.50;;;;;;20964949;28;20044;-73
2021/07/20 17:43:20;;;;;;;3.25;2.30;;;21.70;61.60;;;;;;20940746;28;20036;-73
2021/07/20 17:53:22;;;;;;;2.95;2.28;;;21.60;61.70;;;;;;20972025;28;20037;-74
2021/07/20 18:03:23;;;;;;;5.70;2.15;;;21.60;61.70;;;;;;20941095;28;20564;-75
2021/07/20 18:13:23;;;;;;;3.70;2.50;;;21.60;61.70;;;;;;20972879;28;20119;-75
2021/07/20 18:23:24;;;;;;;3.53;2.30;;;21.60;61.70;;;;;;20954586;28;20115;-76
2021/07/20 18:33:24;;;;;;;4.17;2.53;;;21.60;61.70;;;;;;20878689;28;20398;-76
2021/07/20 18:43:25;;;;;;;3.88;2.60;;;21.60;61.80;;;;;;20951439;28;20768;-77
2021/07/20 18:53:26;;;;;;;2.85;1.88;;;21.50;61.80;;;;;;20951802;28;20123;-78
2021/07/20 19:03:26;;;;;;;4.47;2.72;;;21.50;61.80;;;;;;20951291;28;20042;-78
2021/07/20 19:13:27;;;;;;;3.00;1.98;;;21.50;61.90;;;;;;20946144;28;20040;-75
2021/07/20 19:23:28;;;;;;;4.55;2.45;;;21.50;62.00;;;;;;20924899;28;20028;-78
2021/07/20 19:33:28;;;;;;;3.37;2.13;;;21.60;62.20;;;;;;20963456;28;20048;-75
2021/07/20 19:43:29;;;;;;;3.95;2.45;;;21.50;62.30;;;;;;20964645;28;20062;-77
2021/07/20 19:53:29;;;;;;;3.85;2.38;;;21.50;62.50;;;;;;20961478;28;20102;-76
2021/07/20 20:03:30;;;;;;;4.10;2.85;;;21.50;62.60;;;;;;20944927;28;20406;-75
2021/07/20 20:13:31;;;;;;;3.80;2.55;;;21.50;62.70;;;;;;20981966;28;20068;-74
2021/07/20 20:23:31;;;;;;;4.33;2.77;;;21.50;62.70;;;;;;20962744;28;20510;-74
2021/07/20 20:33:32;;;;;;;3.97;2.15;;;21.50;62.80;;;;;;20896956;28;20382;-74
2021/07/20 20:43:32;;;;;;;3.65;2.42;;;21.50;62.90;;;;;;20915369;28;20394;-75
2021/07/20 20:53:33;;;;;;;4.15;2.72;;;21.40;63.00;;;;;;20960031;28;20048;-75
2021/07/20 21:03:34;;;;;;;4.15;2.42;;;21.40;63.10;;;;;;20960964;28;20111;-75
2021/07/20 21:13:34;;;;;;;5.32;2.90;;;21.50;63.20;;;;;;20959977;28;20054;-75
2021/07/20 21:23:35;;;;;;;4.45;2.75;;;21.50;63.30;;;;;;20943725;28;20028;-76
2021/07/20 21:33:35;;;;;;;4.60;3.13;;;21.40;63.30;;;;;;20941635;28;20123;-76
2021/07/20 21:43:36;;;;;;;5.28;2.72;;;21.40;63.40;;;;;;20973769;28;20028;-76
2021/07/20 21:53:37;;;;;;;5.03;2.90;;;21.40;63.50;;;;;;20939993;28;20043;-76
2021/07/20 22:03:37;;;;;;;5.50;3.57;;;21.40;63.60;;;;;;20923088;28;20127;-75
2021/07/20 22:13:38;;;;;;;5.28;3.47;;;21.40;63.70;;;;;;20956099;28;20823;-76
2021/07/20 22:23:39;;;;;;;4.78;3.13;;;21.40;63.80;;;;;;20937506;28;20039;-76
2021/07/20 22:33:40;;;;;;;3.90;2.80;;;21.40;63.80;;;;;;20919128;28;20048;-76
2021/07/20 22:43:41;;;;;;;5.10;3.13;;;21.40;63.90;;;;;;20936846;28;20032;-76
2021/07/20 22:53:42;;;;;;;5.00;3.28;;;21.40;63.90;;;;;;20953217;28;20051;-75
2021/07/20 23:03:43;;;;;;;5.95;3.70;;;21.50;64.10;;;;;;20953173;28;20561;-76
2021/07/20 23:13:43;;;;;;;5.13;3.20;;;21.40;64.10;;;;;;20935510;28;20143;-77
2021/07/20 23:23:44;;;;;;;4.90;3.17;;;21.40;64.10;;;;;;20968777;28;20025;-76
2021/07/20 23:33:45;;;;;;;5.43;3.33;;;21.40;64.10;;;;;;20951661;28;20043;-76
2021/07/20 23:43:45;;;;;;;6.25;3.92;;;21.40;64.20;;;;;;20951116;28;20037;-76
2021/07/20 23:53:46;;;;;;;5.68;4.13;;;21.40;64.20;;;;;;20951142;28;20178;-76
